sensor_id;sensor_type;location;lat;lon;timestamp;P1;durP1;ratioP1;P2;durP2;ratioP2
17794;SDS011;9021;50.882;4.326;2022-08-11T00:02:35;6.15;;;1.60;;
17794;SDS011;9021;50.882;4.326;2022-08-11T00:05:04;5.15;;;1.73;;
17794;SDS011;9021;50.882;4.326;2022-08-11T00:07:33;3.15;;;1.40;;
17794;SDS011;9021;50.882;4.326;2022-08-11T00:10:05;4.97;;;1.55;;
17794;SDS011;9021;50.882;4.326;2022-08-11T00:12:35;4.03;;;1.35;;
17794;SDS011;9021;50.882;4.326;2022-08-11T00:17:28;6.70;;;1.67;;
17794;SDS011;9021;50.882;4.326;2022-08-11T00:20:07;3.20;;;1.40;;
17794;SDS011;9021;50.882;4.326;2022-08-11T00:22:35;3.75;;;1.60;;
17794;SDS011;9021;50.882;4.326;2022-08-11T00:25:19;3.17;;;1.63;;
17794;SDS011;9021;50.882;4.326;2022-08-11T00:27:46;5.22;;;1.60;;
17794;SDS011;9021;50.882;4.326;2022-08-11T00:30:13;4.38;;;1.83;;
17794;SDS011;9021;50.882;4.326;2022-08-11T00:32:41;11.25;;;1.70;;
17794;SDS011;9021;50.882;4.326;2022-08-11T00:35:10;3.50;;;1.70;;
17794;SDS011;9021;50.882;4.326;2022-08-11T00:37:38;3.17;;;1.40;;
17794;SDS011;9021;50.882;4.326;2022-08-11T00:40:13;4.40;;;1.50;;
17794;SDS011;9021;50.882;4.326;2022-08-11T00:42:54;5.05;;;1.50;;
17794;SDS011;9021;50.882;4.326;2022-08-11T00:59:31;2.67;;;1.60;;
17794;SDS011;9021;50.882;4.326;2022-08-11T01:33:01;2.95;;;1.80;;
17794;SDS011;9021;50.882;4.326;2022-08-11T01:36:01;3.67;;;1.67;;
17794;SDS011;9021;50.882;4.326;2022-08-11T01:47:59;5.68;;;2.08;;
17794;SDS011;9021;50.882;4.326;2022-08-11T01:50:53;5.68;;;2.08;;
17794;SDS011;9021;50.882;4.326;2022-08-11T01:53:59;5.18;;;2.20;;
17794;SDS011;9021;50.882;4.326;2022-08-11T01:56:39;12.52;;;1.98;;
17794;SDS011;9021;50.882;4.326;2022-08-11T01:59:35;3.45;;;1.90;;
17794;SDS011;9021;50.882;4.326;2022-08-11T02:11:00;5.63;;;2.20;;
17794;SDS011;9021;50.882;4.326;2022-08-11T02:13:59;4.45;;;1.70;;
17794;SDS011;9021;50.882;4.326;2022-08-11T02:19:29;6.68;;;1.83;;
17794;SDS011;9021;50.882;4.326;2022-08-11T02:25:49;7.97;;;2.00;;
17794;SDS011;9021;50.882;4.326;2022-08-11T02:28:23;4.05;;;1.98;;
17794;SDS011;9021;50.882;4.326;2022-08-11T02:31:16;4.90;;;1.67;;
17794;SDS011;9021;50.882;4.326;2022-08-11T02:34:11;4.70;;;1.85;;
17794;SDS011;9021;50.882;4.326;2022-08-11T02:37:00;4.20;;;1.90;;
17794;SDS011;9021;50.882;4.326;2022-08-11T02:57:20;4.13;;;1.88;;
17794;SDS011;9021;50.882;4.326;2022-08-11T03:06:18;6.57;;;2.10;;
17794;SDS011;9021;50.882;4.326;2022-08-11T03:08:53;3.53;;;2.00;;
17794;SDS011;9021;50.882;4.326;2022-08-11T03:17:40;3.97;;;2.08;;
17794;SDS011;9021;50.882;4.326;2022-08-11T03:25:31;10.63;;;2.30;;
17794;SDS011;9021;50.882;4.326;2022-08-11T03:33:40;3.53;;;2.20;;
17794;SDS011;9021;50.882;4.326;2022-08-11T03:39:19;3.15;;;2.10;;
17794;SDS011;9021;50.882;4.326;2022-08-11T03:45:18;3.47;;;2.00;;
17794;SDS011;9021;50.882;4.326;2022-08-11T03:48:13;6.72;;;2.10;;
17794;SDS011;9021;50.882;4.326;2022-08-11T03:51:03;5.45;;;1.92;;
17794;SDS011;9021;50.882;4.326;2022-08-11T04:02:52;5.10;;;2.10;;
17794;SDS011;9021;50.882;4.326;2022-08-11T04:14:03;3.83;;;2.13;;
17794;SDS011;9021;50.882;4.326;2022-08-11T04:17:16;3.63;;;2.10;;
17794;SDS011;9021;50.882;4.326;2022-08-11T04:26:12;5.55;;;2.38;;
17794;SDS011;9021;50.882;4.326;2022-08-11T04:29:13;3.53;;;2.17;;
17794;SDS011;9021;50.882;4.326;2022-08-11T04:34:56;3.55;;;2.03;;
17794;SDS011;9021;50.882;4.326;2022-08-11T04:48:51;3.63;;;2.28;;
17794;SDS011;9021;50.882;4.326;2022-08-11T04:57:53;5.97;;;2.53;;
17794;SDS011;9021;50.882;4.326;2022-08-11T05:00:55;3.78;;;2.35;;
17794;SDS011;9021;50.882;4.326;2022-08-11T05:04:06;6.55;;;2.53;;
17794;SDS011;9021;50.882;4.326;2022-08-11T05:07:00;3.83;;;2.63;;
17794;SDS011;9021;50.882;4.326;2022-08-11T05:12:45;5.10;;;2.83;;
17794;SDS011;9021;50.882;4.326;2022-08-11T05:15:19;7.15;;;2.85;;
17794;SDS011;9021;50.882;4.326;2022-08-11T05:18:17;3.75;;;2.38;;
17794;SDS011;9021;50.882;4.326;2022-08-11T05:21:06;5.55;;;2.85;;
17794;SDS011;9021;50.882;4.326;2022-08-11T05:26:43;5.80;;;2.72;;
17794;SDS011;9021;50.882;4.326;2022-08-11T05:32:20;5.30;;;2.97;;
17794;SDS011;9021;50.882;4.326;2022-08-11T05:35:06;3.50;;;2.53;;
17794;SDS011;9021;50.882;4.326;2022-08-11T05:37:37;5.47;;;2.83;;
17794;SDS011;9021;50.882;4.326;2022-08-11T05:40:25;4.93;;;3.08;;
17794;SDS011;9021;50.882;4.326;2022-08-11T05:43:11;5.90;;;3.03;;
17794;SDS011;9021;50.882;4.326;2022-08-11T05:46:04;10.13;;;2.85;;
17794;SDS011;9021;50.882;4.326;2022-08-11T05:48:50;7.85;;;2.88;;
17794;SDS011;9021;50.882;4.326;2022-08-11T05:51:40;9.95;;;3.22;;
17794;SDS011;9021;50.882;4.326;2022-08-11T05:54:25;7.10;;;3.00;;
17794;SDS011;9021;50.882;4.326;2022-08-11T05:57:27;5.32;;;3.10;;
17794;SDS011;9021;50.882;4.326;2022-08-11T05:59:59;9.25;;;3.10;;
17794;SDS011;9021;50.882;4.326;2022-08-11T06:02:26;8.88;;;3.22;;
17794;SDS011;9021;50.882;4.326;2022-08-11T06:04:54;8.05;;;3.55;;
17794;SDS011;9021;50.882;4.326;2022-08-11T06:07:25;8.25;;;3.38;;
17794;SDS011;9021;50.882;4.326;2022-08-11T06:09:53;10.45;;;5.57;;
17794;SDS011;9021;50.882;4.326;2022-08-11T06:12:21;7.22;;;3.83;;
17794;SDS011;9021;50.882;4.326;2022-08-11T06:14:52;7.47;;;3.78;;
17794;SDS011;9021;50.882;4.326;2022-08-11T06:17:23;9.05;;;3.17;;
17794;SDS011;9021;50.882;4.326;2022-08-11T06:19:50;5.35;;;3.13;;
17794;SDS011;9021;50.882;4.326;2022-08-11T06:22:22;7.47;;;3.30;;
17794;SDS011;9021;50.882;4.326;2022-08-11T06:24:50;7.15;;;3.35;;
17794;SDS011;9021;50.882;4.326;2022-08-11T06:27:22;11.65;;;3.80;;
17794;SDS011;9021;50.882;4.326;2022-08-11T06:29:50;9.70;;;3.30;;
17794;SDS011;9021;50.882;4.326;2022-08-11T06:32:18;9.48;;;3.35;;
17794;SDS011;9021;50.882;4.326;2022-08-11T06:38:03;8.38;;;3.38;;
17794;SDS011;9021;50.882;4.326;2022-08-11T06:40:53;10.63;;;4.03;;
17794;SDS011;9021;50.882;4.326;2022-08-11T06:43:46;5.03;;;2.75;;
17794;SDS011;9021;50.882;4.326;2022-08-11T06:46:25;18.00;;;3.92;;
17794;SDS011;9021;50.882;4.326;2022-08-11T06:51:20;8.80;;;3.20;;
17794;SDS011;9021;50.882;4.326;2022-08-11T06:53:48;11.65;;;3.72;;
17794;SDS011;9021;50.882;4.326;2022-08-11T06:56:20;7.72;;;2.70;;
17794;SDS011;9021;50.882;4.326;2022-08-11T06:59:08;10.80;;;2.97;;
17794;SDS011;9021;50.882;4.326;2022-08-11T07:02:07;15.18;;;3.92;;
17794;SDS011;9021;50.882;4.326;2022-08-11T07:07:19;8.48;;;3.00;;
17794;SDS011;9021;50.882;4.326;2022-08-11T07:13:28;9.55;;;2.80;;
17794;SDS011;9021;50.882;4.326;2022-08-11T07:16:17;9.48;;;2.92;;
17794;SDS011;9021;50.882;4.326;2022-08-11T07:18:49;11.07;;;2.90;;
17794;SDS011;9021;50.882;4.326;2022-08-11T07:21:34;7.90;;;3.03;;
17794;SDS011;9021;50.882;4.326;2022-08-11T07:24:24;10.55;;;2.90;;
17794;SDS011;9021;50.882;4.326;2022-08-11T07:27:16;10.35;;;2.88;;
17794;SDS011;9021;50.882;4.326;2022-08-11T07:30:04;16.90;;;3.97;;
17794;SDS011;9021;50.882;4.326;2022-08-11T07:32:33;12.65;;;3.47;;
17794;SDS011;9021;50.882;4.326;2022-08-11T07:35:12;6.82;;;2.60;;
17794;SDS011;9021;50.882;4.326;2022-08-11T07:37:46;8.63;;;2.50;;
17794;SDS011;9021;50.882;4.326;2022-08-11T07:40:18;6.93;;;2.80;;
17794;SDS011;9021;50.882;4.326;2022-08-11T07:42:47;9.73;;;2.60;;
17794;SDS011;9021;50.882;4.326;2022-08-11T07:45:17;13.60;;;2.60;;
17794;SDS011;9021;50.882;4.326;2022-08-11T07:48:01;6.63;;;2.67;;
17794;SDS011;9021;50.882;4.326;2022-08-11T07:50:46;8.52;;;2.90;;
17794;SDS011;9021;50.882;4.326;2022-08-11T07:53:31;8.48;;;2.47;;
17794;SDS011;9021;50.882;4.326;2022-08-11T07:55:59;8.75;;;2.55;;
17794;SDS011;9021;50.882;4.326;2022-08-11T07:58:26;7.07;;;2.25;;
17794;SDS011;9021;50.882;4.326;2022-08-11T08:01:17;5.95;;;2.53;;
17794;SDS011;9021;50.882;4.326;2022-08-11T08:04:03;5.45;;;2.67;;
17794;SDS011;9021;50.882;4.326;2022-08-11T08:06:49;9.50;;;2.83;;
17794;SDS011;9021;50.882;4.326;2022-08-11T08:09:34;9.27;;;2.97;;
17794;SDS011;9021;50.882;4.326;2022-08-11T08:12:20;12.17;;;2.43;;
17794;SDS011;9021;50.882;4.326;2022-08-11T08:15:06;11.73;;;2.47;;
17794;SDS011;9021;50.882;4.326;2022-08-11T08:17:54;9.35;;;2.15;;
17794;SDS011;9021;50.882;4.326;2022-08-11T08:20:44;4.75;;;2.25;;
17794;SDS011;9021;50.882;4.326;2022-08-11T08:23:10;8.40;;;2.17;;
17794;SDS011;9021;50.882;4.326;2022-08-11T08:25:40;7.18;;;2.35;;
17794;SDS011;9021;50.882;4.326;2022-08-11T08:28:14;11.77;;;2.50;;
17794;SDS011;9021;50.882;4.326;2022-08-11T08:30:42;5.95;;;2.15;;
17794;SDS011;9021;50.882;4.326;2022-08-11T08:33:11;7.65;;;2.35;;
17794;SDS011;9021;50.882;4.326;2022-08-11T08:35:40;8.43;;;2.28;;
17794;SDS011;9021;50.882;4.326;2022-08-11T08:38:08;7.10;;;2.33;;
17794;SDS011;9021;50.882;4.326;2022-08-11T08:40:34;10.75;;;2.70;;
17794;SDS011;9021;50.882;4.326;2022-08-11T08:43:02;5.00;;;2.20;;
17794;SDS011;9021;50.882;4.326;2022-08-11T08:45:33;7.43;;;2.40;;
17794;SDS011;9021;50.882;4.326;2022-08-11T08:48:11;6.60;;;2.08;;
17794;SDS011;9021;50.882;4.326;2022-08-11T08:50:50;4.35;;;2.15;;
17794;SDS011;9021;50.882;4.326;2022-08-11T08:53:39;5.28;;;2.30;;
17794;SDS011;9021;50.882;4.326;2022-08-11T08:56:08;4.50;;;2.10;;
17794;SDS011;9021;50.882;4.326;2022-08-11T08:58:35;7.60;;;2.33;;
17794;SDS011;9021;50.882;4.326;2022-08-11T09:01:02;7.70;;;2.30;;
17794;SDS011;9021;50.882;4.326;2022-08-11T09:03:29;4.68;;;2.15;;
17794;SDS011;9021;50.882;4.326;2022-08-11T09:05:56;5.25;;;2.28;;
17794;SDS011;9021;50.882;4.326;2022-08-11T09:08:22;4.90;;;2.03;;
17794;SDS011;9021;50.882;4.326;2022-08-11T09:10:49;5.03;;;2.40;;
17794;SDS011;9021;50.882;4.326;2022-08-11T09:13:35;9.25;;;2.40;;
17794;SDS011;9021;50.882;4.326;2022-08-11T09:16:06;6.18;;;3.17;;
17794;SDS011;9021;50.882;4.326;2022-08-11T09:18:35;5.32;;;2.50;;
17794;SDS011;9021;50.882;4.326;2022-08-11T09:21:02;6.28;;;2.47;;
17794;SDS011;9021;50.882;4.326;2022-08-11T09:23:28;4.80;;;2.38;;
17794;SDS011;9021;50.882;4.326;2022-08-11T09:26:14;5.45;;;2.35;;
17794;SDS011;9021;50.882;4.326;2022-08-11T09:28:59;6.55;;;2.65;;
17794;SDS011;9021;50.882;4.326;2022-08-11T09:31:29;9.27;;;2.22;;
17794;SDS011;9021;50.882;4.326;2022-08-11T09:33:57;7.97;;;2.20;;
17794;SDS011;9021;50.882;4.326;2022-08-11T09:36:24;7.03;;;1.98;;
17794;SDS011;9021;50.882;4.326;2022-08-11T09:39:09;5.40;;;2.00;;
17794;SDS011;9021;50.882;4.326;2022-08-11T09:41:55;7.70;;;2.20;;
17794;SDS011;9021;50.882;4.326;2022-08-11T09:44:21;5.85;;;2.40;;
17794;SDS011;9021;50.882;4.326;2022-08-11T09:47:29;12.20;;;2.42;;
17794;SDS011;9021;50.882;4.326;2022-08-11T09:49:56;6.70;;;2.20;;
17794;SDS011;9021;50.882;4.326;2022-08-11T09:52:24;5.88;;;2.25;;
17794;SDS011;9021;50.882;4.326;2022-08-11T09:54:50;5.20;;;2.53;;
17794;SDS011;9021;50.882;4.326;2022-08-11T09:57:20;3.25;;;1.70;;
17794;SDS011;9021;50.882;4.326;2022-08-11T10:00:06;4.00;;;2.10;;
17794;SDS011;9021;50.882;4.326;2022-08-11T10:02:33;6.32;;;2.15;;
17794;SDS011;9021;50.882;4.326;2022-08-11T10:05:06;4.80;;;1.90;;
17794;SDS011;9021;50.882;4.326;2022-08-11T10:07:51;9.52;;;2.60;;
17794;SDS011;9021;50.882;4.326;2022-08-11T10:10:17;3.90;;;2.35;;
17794;SDS011;9021;50.882;4.326;2022-08-11T10:12:47;10.02;;;2.20;;
17794;SDS011;9021;50.882;4.326;2022-08-11T10:15:15;5.93;;;2.25;;
17794;SDS011;9021;50.882;4.326;2022-08-11T10:17:59;3.97;;;2.20;;
17794;SDS011;9021;50.882;4.326;2022-08-11T10:20:46;4.72;;;2.22;;
17794;SDS011;9021;50.882;4.326;2022-08-11T10:23:14;6.35;;;2.00;;
17794;SDS011;9021;50.882;4.326;2022-08-11T10:25:59;3.42;;;2.03;;
17794;SDS011;9021;50.882;4.326;2022-08-11T10:28:44;5.15;;;2.30;;
17794;SDS011;9021;50.882;4.326;2022-08-11T10:31:10;6.13;;;2.45;;
17794;SDS011;9021;50.882;4.326;2022-08-11T10:33:54;8.65;;;2.15;;
17794;SDS011;9021;50.882;4.326;2022-08-11T10:36:25;4.20;;;2.13;;
17794;SDS011;9021;50.882;4.326;2022-08-11T10:38:52;5.18;;;2.28;;
17794;SDS011;9021;50.882;4.326;2022-08-11T10:41:19;10.13;;;2.60;;
17794;SDS011;9021;50.882;4.326;2022-08-11T10:44:05;4.82;;;2.13;;
17794;SDS011;9021;50.882;4.326;2022-08-11T10:46:33;5.18;;;2.50;;
17794;SDS011;9021;50.882;4.326;2022-08-11T10:49:17;5.80;;;2.30;;
17794;SDS011;9021;50.882;4.326;2022-08-11T10:51:44;3.03;;;2.08;;
17794;SDS011;9021;50.882;4.326;2022-08-11T10:54:29;5.10;;;2.00;;
17794;SDS011;9021;50.882;4.326;2022-08-11T11:00:00;9.68;;;1.98;;
17794;SDS011;9021;50.882;4.326;2022-08-11T11:02:29;4.53;;;2.28;;
17794;SDS011;9021;50.882;4.326;2022-08-11T11:04:57;4.18;;;2.03;;
17794;SDS011;9021;50.882;4.326;2022-08-11T11:07:46;5.22;;;1.90;;
17794;SDS011;9021;50.882;4.326;2022-08-11T11:10:19;3.78;;;1.70;;
17794;SDS011;9021;50.882;4.326;2022-08-11T11:12:45;4.35;;;1.90;;
17794;SDS011;9021;50.882;4.326;2022-08-11T11:15:34;8.55;;;1.98;;
17794;SDS011;9021;50.882;4.326;2022-08-11T11:18:20;5.78;;;1.75;;
17794;SDS011;9021;50.882;4.326;2022-08-11T11:23:40;4.60;;;1.88;;
17794;SDS011;9021;50.882;4.326;2022-08-11T11:37:44;5.20;;;1.92;;
17794;SDS011;9021;50.882;4.326;2022-08-11T11:40:13;6.57;;;2.10;;
17794;SDS011;9021;50.882;4.326;2022-08-11T11:42:45;3.47;;;2.50;;
17794;SDS011;9021;50.882;4.326;2022-08-11T11:45:21;4.78;;;1.77;;
17794;SDS011;9021;50.882;4.326;2022-08-11T11:47:49;4.13;;;1.58;;
17794;SDS011;9021;50.882;4.326;2022-08-11T11:52:54;9.27;;;2.10;;
17794;SDS011;9021;50.882;4.326;2022-08-11T11:55:22;4.07;;;1.60;;
17794;SDS011;9021;50.882;4.326;2022-08-11T11:57:49;6.95;;;1.92;;
17794;SDS011;9021;50.882;4.326;2022-08-11T12:00:35;3.20;;;2.00;;
17794;SDS011;9021;50.882;4.326;2022-08-11T12:03:20;3.85;;;1.50;;
17794;SDS011;9021;50.882;4.326;2022-08-11T12:05:47;4.88;;;1.98;;
17794;SDS011;9021;50.882;4.326;2022-08-11T12:08:17;6.22;;;2.10;;
17794;SDS011;9021;50.882;4.326;2022-08-11T12:10:51;4.85;;;2.13;;
17794;SDS011;9021;50.882;4.326;2022-08-11T12:13:47;5.40;;;2.00;;
17794;SDS011;9021;50.882;4.326;2022-08-11T12:16:15;6.05;;;2.10;;
17794;SDS011;9021;50.882;4.326;2022-08-11T12:18:44;3.28;;;1.85;;
17794;SDS011;9021;50.882;4.326;2022-08-11T12:21:11;4.57;;;1.75;;
17794;SDS011;9021;50.882;4.326;2022-08-11T12:23:39;5.15;;;1.73;;
17794;SDS011;9021;50.882;4.326;2022-08-11T12:26:26;4.75;;;1.90;;
17794;SDS011;9021;50.882;4.326;2022-08-11T12:29:11;8.23;;;1.73;;
17794;SDS011;9021;50.882;4.326;2022-08-11T12:31:39;3.17;;;1.67;;
17794;SDS011;9021;50.882;4.326;2022-08-11T12:34:06;2.85;;;1.70;;
17794;SDS011;9021;50.882;4.326;2022-08-11T12:36:36;3.92;;;1.80;;
17794;SDS011;9021;50.882;4.326;2022-08-11T12:39:08;4.15;;;1.75;;
17794;SDS011;9021;50.882;4.326;2022-08-11T12:41:36;2.40;;;1.60;;
17794;SDS011;9021;50.882;4.326;2022-08-11T12:44:25;4.07;;;1.58;;
17794;SDS011;9021;50.882;4.326;2022-08-11T12:47:12;9.48;;;1.83;;
17794;SDS011;9021;50.882;4.326;2022-08-11T12:49:43;4.63;;;1.70;;
17794;SDS011;9021;50.882;4.326;2022-08-11T12:52:33;5.93;;;1.65;;
17794;SDS011;9021;50.882;4.326;2022-08-11T12:55:11;3.85;;;1.75;;
17794;SDS011;9021;50.882;4.326;2022-08-11T12:58:03;2.70;;;1.60;;
17794;SDS011;9021;50.882;4.326;2022-08-11T13:00:41;7.45;;;1.92;;
17794;SDS011;9021;50.882;4.326;2022-08-11T13:03:29;7.88;;;1.63;;
17794;SDS011;9021;50.882;4.326;2022-08-11T13:06:16;6.68;;;1.75;;
17794;SDS011;9021;50.882;4.326;2022-08-11T13:08:43;4.03;;;1.70;;
17794;SDS011;9021;50.882;4.326;2022-08-11T13:11:10;5.57;;;1.75;;
17794;SDS011;9021;50.882;4.326;2022-08-11T13:13:55;4.68;;;1.45;;
17794;SDS011;9021;50.882;4.326;2022-08-11T13:16:23;3.88;;;1.30;;
17794;SDS011;9021;50.882;4.326;2022-08-11T13:18:52;6.05;;;1.90;;
17794;SDS011;9021;50.882;4.326;2022-08-11T13:21:18;4.25;;;1.60;;
17794;SDS011;9021;50.882;4.326;2022-08-11T13:23:44;3.88;;;1.30;;
17794;SDS011;9021;50.882;4.326;2022-08-11T13:26:10;2.67;;;1.33;;
17794;SDS011;9021;50.882;4.326;2022-08-11T13:28:37;4.00;;;1.50;;
17794;SDS011;9021;50.882;4.326;2022-08-11T13:31:03;3.55;;;1.65;;
17794;SDS011;9021;50.882;4.326;2022-08-11T13:33:48;2.95;;;1.70;;
17794;SDS011;9021;50.882;4.326;2022-08-11T13:36:19;4.05;;;1.52;;
17794;SDS011;9021;50.882;4.326;2022-08-11T13:38:48;4.68;;;1.73;;
17794;SDS011;9021;50.882;4.326;2022-08-11T13:41:14;4.22;;;1.50;;
17794;SDS011;9021;50.882;4.326;2022-08-11T13:44:00;3.90;;;1.45;;
17794;SDS011;9021;50.882;4.326;2022-08-11T13:46:26;2.50;;;1.65;;
17794;SDS011;9021;50.882;4.326;2022-08-11T13:48:53;7.03;;;1.90;;
17794;SDS011;9021;50.882;4.326;2022-08-11T13:51:21;3.75;;;1.65;;
17794;SDS011;9021;50.882;4.326;2022-08-11T13:54:02;2.50;;;1.67;;
17794;SDS011;9021;50.882;4.326;2022-08-11T13:56:34;7.38;;;1.48;;
17794;SDS011;9021;50.882;4.326;2022-08-11T13:59:04;2.67;;;1.30;;
17794;SDS011;9021;50.882;4.326;2022-08-11T14:01:32;4.78;;;1.65;;
17794;SDS011;9021;50.882;4.326;2022-08-11T14:04:08;5.75;;;1.60;;
17794;SDS011;9021;50.882;4.326;2022-08-11T14:06:37;4.75;;;1.67;;
17794;SDS011;9021;50.882;4.326;2022-08-11T14:09:08;4.55;;;1.80;;
17794;SDS011;9021;50.882;4.326;2022-08-11T14:11:35;4.90;;;1.55;;
17794;SDS011;9021;50.882;4.326;2022-08-11T14:14:22;6.80;;;1.80;;
17794;SDS011;9021;50.882;4.326;2022-08-11T14:16:51;5.80;;;1.80;;
17794;SDS011;9021;50.882;4.326;2022-08-11T14:19:20;6.28;;;1.80;;
17794;SDS011;9021;50.882;4.326;2022-08-11T14:21:48;5.00;;;1.48;;
17794;SDS011;9021;50.882;4.326;2022-08-11T14:24:31;3.22;;;1.55;;
17794;SDS011;9021;50.882;4.326;2022-08-11T14:27:01;4.03;;;1.60;;
17794;SDS011;9021;50.882;4.326;2022-08-11T14:29:27;7.90;;;1.73;;
17794;SDS011;9021;50.882;4.326;2022-08-11T14:31:55;5.00;;;1.67;;
17794;SDS011;9021;50.882;4.326;2022-08-11T14:34:23;4.00;;;1.70;;
17794;SDS011;9021;50.882;4.326;2022-08-11T14:36:52;3.35;;;1.60;;
17794;SDS011;9021;50.882;4.326;2022-08-11T14:39:26;3.53;;;1.80;;
17794;SDS011;9021;50.882;4.326;2022-08-11T14:42:01;3.80;;;1.65;;
17794;SDS011;9021;50.882;4.326;2022-08-11T14:44:47;6.88;;;1.77;;
17794;SDS011;9021;50.882;4.326;2022-08-11T14:47:35;2.40;;;1.63;;
17794;SDS011;9021;50.882;4.326;2022-08-11T14:50:03;2.80;;;1.77;;
17794;SDS011;9021;50.882;4.326;2022-08-11T14:52:31;4.07;;;1.80;;
17794;SDS011;9021;50.882;4.326;2022-08-11T14:55:01;4.72;;;1.73;;
17794;SDS011;9021;50.882;4.326;2022-08-11T14:57:46;3.47;;;1.45;;
17794;SDS011;9021;50.882;4.326;2022-08-11T15:00:13;4.68;;;1.90;;
17794;SDS011;9021;50.882;4.326;2022-08-11T15:02:42;2.88;;;1.98;;
17794;SDS011;9021;50.882;4.326;2022-08-11T15:05:28;6.20;;;1.60;;
17794;SDS011;9021;50.882;4.326;2022-08-11T15:07:54;3.50;;;1.67;;
17794;SDS011;9021;50.882;4.326;2022-08-11T15:10:22;5.32;;;1.88;;
17794;SDS011;9021;50.882;4.326;2022-08-11T15:12:48;5.18;;;1.52;;
17794;SDS011;9021;50.882;4.326;2022-08-11T15:15:14;6.57;;;1.80;;
17794;SDS011;9021;50.882;4.326;2022-08-11T15:18:01;7.50;;;2.05;;
17794;SDS011;9021;50.882;4.326;2022-08-11T15:20:29;9.82;;;6.50;;
17794;SDS011;9021;50.882;4.326;2022-08-11T15:23:14;7.20;;;1.92;;
17794;SDS011;9021;50.882;4.326;2022-08-11T15:26:10;4.07;;;1.80;;
17794;SDS011;9021;50.882;4.326;2022-08-11T15:29:14;5.70;;;2.00;;
17794;SDS011;9021;50.882;4.326;2022-08-11T15:32:05;8.00;;;2.15;;
17794;SDS011;9021;50.882;4.326;2022-08-11T15:34:46;3.10;;;1.60;;
17794;SDS011;9021;50.882;4.326;2022-08-11T15:37:35;4.03;;;1.75;;
17794;SDS011;9021;50.882;4.326;2022-08-11T15:40:17;6.00;;;2.00;;
17794;SDS011;9021;50.882;4.326;2022-08-11T15:43:06;8.73;;;2.55;;
17794;SDS011;9021;50.882;4.326;2022-08-11T15:45:56;2.70;;;1.88;;
17794;SDS011;9021;50.882;4.326;2022-08-11T15:51:20;5.07;;;1.92;;
17794;SDS011;9021;50.882;4.326;2022-08-11T15:53:57;5.97;;;1.92;;
17794;SDS011;9021;50.882;4.326;2022-08-11T15:56:26;6.18;;;2.15;;
17794;SDS011;9021;50.882;4.326;2022-08-11T15:58:56;2.67;;;1.80;;
17794;SDS011;9021;50.882;4.326;2022-08-11T16:01:44;6.03;;;1.80;;
17794;SDS011;9021;50.882;4.326;2022-08-11T16:04:30;4.45;;;1.70;;
17794;SDS011;9021;50.882;4.326;2022-08-11T16:09:27;2.33;;;1.67;;
17794;SDS011;9021;50.882;4.326;2022-08-11T16:14:30;6.68;;;1.98;;
17794;SDS011;9021;50.882;4.326;2022-08-11T16:17:17;3.83;;;1.70;;
17794;SDS011;9021;50.882;4.326;2022-08-11T16:19:45;4.65;;;1.85;;
17794;SDS011;9021;50.882;4.326;2022-08-11T16:22:13;3.90;;;1.70;;
17794;SDS011;9021;50.882;4.326;2022-08-11T16:24:43;5.45;;;1.85;;
17794;SDS011;9021;50.882;4.326;2022-08-11T16:27:11;3.08;;;1.88;;
17794;SDS011;9021;50.882;4.326;2022-08-11T16:29:39;3.30;;;2.03;;
17794;SDS011;9021;50.882;4.326;2022-08-11T16:32:08;6.10;;;1.83;;
17794;SDS011;9021;50.882;4.326;2022-08-11T16:37:32;7.28;;;2.00;;
17794;SDS011;9021;50.882;4.326;2022-08-11T16:40:31;3.85;;;1.80;;
17794;SDS011;9021;50.882;4.326;2022-08-11T16:42:58;5.78;;;1.80;;
17794;SDS011;9021;50.882;4.326;2022-08-11T16:45:43;5.63;;;1.67;;
17794;SDS011;9021;50.882;4.326;2022-08-11T16:48:31;6.68;;;2.00;;
17794;SDS011;9021;50.882;4.326;2022-08-11T16:50:59;4.78;;;1.63;;
17794;SDS011;9021;50.882;4.326;2022-08-11T16:53:26;3.70;;;1.80;;
17794;SDS011;9021;50.882;4.326;2022-08-11T16:55:53;4.78;;;1.90;;
17794;SDS011;9021;50.882;4.326;2022-08-11T16:58:20;4.32;;;1.77;;
17794;SDS011;9021;50.882;4.326;2022-08-11T17:01:06;5.88;;;1.90;;
17794;SDS011;9021;50.882;4.326;2022-08-11T17:03:34;2.85;;;1.50;;
17794;SDS011;9021;50.882;4.326;2022-08-11T17:06:26;6.10;;;1.80;;
17794;SDS011;9021;50.882;4.326;2022-08-11T17:09:10;2.83;;;1.75;;
17794;SDS011;9021;50.882;4.326;2022-08-11T17:11:57;5.20;;;2.08;;
17794;SDS011;9021;50.882;4.326;2022-08-11T17:14:43;8.40;;;2.20;;
17794;SDS011;9021;50.882;4.326;2022-08-11T17:17:16;5.13;;;1.80;;
17794;SDS011;9021;50.882;4.326;2022-08-11T17:19:48;5.70;;;1.77;;
17794;SDS011;9021;50.882;4.326;2022-08-11T17:22:17;3.45;;;1.55;;
17794;SDS011;9021;50.882;4.326;2022-08-11T17:25:03;4.88;;;1.65;;
17794;SDS011;9021;50.882;4.326;2022-08-11T17:27:32;6.05;;;1.77;;
17794;SDS011;9021;50.882;4.326;2022-08-11T17:30:05;5.15;;;1.65;;
17794;SDS011;9021;50.882;4.326;2022-08-11T17:32:34;3.55;;;1.70;;
17794;SDS011;9021;50.882;4.326;2022-08-11T17:35:22;3.42;;;1.63;;
17794;SDS011;9021;50.882;4.326;2022-08-11T17:45:43;5.05;;;1.80;;
17794;SDS011;9021;50.882;4.326;2022-08-11T17:48:29;4.25;;;1.83;;
17794;SDS011;9021;50.882;4.326;2022-08-11T17:53:31;5.57;;;1.70;;
17794;SDS011;9021;50.882;4.326;2022-08-11T17:56:26;4.75;;;1.60;;
17794;SDS011;9021;50.882;4.326;2022-08-11T17:59:14;5.03;;;1.60;;
17794;SDS011;9021;50.882;4.326;2022-08-11T18:02:01;4.03;;;1.73;;
17794;SDS011;9021;50.882;4.326;2022-08-11T18:04:49;3.83;;;2.05;;
17794;SDS011;9021;50.882;4.326;2022-08-11T18:07:16;5.10;;;1.80;;
17794;SDS011;9021;50.882;4.326;2022-08-11T18:10:03;5.18;;;1.63;;
17794;SDS011;9021;50.882;4.326;2022-08-11T18:12:49;4.38;;;2.10;;
17794;SDS011;9021;50.882;4.326;2022-08-11T18:15:36;9.98;;;2.72;;
17794;SDS011;9021;50.882;4.326;2022-08-11T18:18:22;4.35;;;2.00;;
17794;SDS011;9021;50.882;4.326;2022-08-11T18:21:06;4.88;;;1.90;;
17794;SDS011;9021;50.882;4.326;2022-08-11T18:23:51;6.53;;;1.75;;
17794;SDS011;9021;50.882;4.326;2022-08-11T18:29:23;6.57;;;2.17;;
17794;SDS011;9021;50.882;4.326;2022-08-11T18:32:08;5.90;;;2.13;;
17794;SDS011;9021;50.882;4.326;2022-08-11T18:34:55;4.50;;;1.88;;
17794;SDS011;9021;50.882;4.326;2022-08-11T18:37:45;7.03;;;2.13;;
17794;SDS011;9021;50.882;4.326;2022-08-11T18:40:31;5.45;;;2.22;;
17794;SDS011;9021;50.882;4.326;2022-08-11T18:43:18;5.35;;;2.55;;
17794;SDS011;9021;50.882;4.326;2022-08-11T18:46:05;9.15;;;2.83;;
17794;SDS011;9021;50.882;4.326;2022-08-11T18:48:52;4.03;;;2.78;;
17794;SDS011;9021;50.882;4.326;2022-08-11T18:51:43;6.07;;;3.03;;
17794;SDS011;9021;50.882;4.326;2022-08-11T18:54:30;10.50;;;4.68;;
17794;SDS011;9021;50.882;4.326;2022-08-11T18:57:19;6.60;;;3.83;;
17794;SDS011;9021;50.882;4.326;2022-08-11T19:00:04;4.70;;;2.85;;
17794;SDS011;9021;50.882;4.326;2022-08-11T19:02:49;7.55;;;2.63;;
17794;SDS011;9021;50.882;4.326;2022-08-11T19:05:34;6.32;;;2.72;;
17794;SDS011;9021;50.882;4.326;2022-08-11T19:11:05;4.82;;;2.20;;
17794;SDS011;9021;50.882;4.326;2022-08-11T19:13:53;5.68;;;2.78;;
17794;SDS011;9021;50.882;4.326;2022-08-11T19:16:37;10.00;;;2.30;;
17794;SDS011;9021;50.882;4.326;2022-08-11T19:19:25;5.40;;;2.30;;
17794;SDS011;9021;50.882;4.326;2022-08-11T19:22:11;16.75;;;2.70;;
17794;SDS011;9021;50.882;4.326;2022-08-11T19:24:55;5.93;;;2.30;;
17794;SDS011;9021;50.882;4.326;2022-08-11T19:27:40;4.30;;;2.30;;
17794;SDS011;9021;50.882;4.326;2022-08-11T19:30:30;5.68;;;2.65;;
17794;SDS011;9021;50.882;4.326;2022-08-11T19:33:15;5.75;;;2.20;;
17794;SDS011;9021;50.882;4.326;2022-08-11T19:36:00;4.53;;;2.40;;
17794;SDS011;9021;50.882;4.326;2022-08-11T19:38:45;6.03;;;2.50;;
17794;SDS011;9021;50.882;4.326;2022-08-11T19:41:30;5.93;;;2.22;;
17794;SDS011;9021;50.882;4.326;2022-08-11T19:44:15;12.05;;;2.95;;
17794;SDS011;9021;50.882;4.326;2022-08-11T19:47:00;9.25;;;2.70;;
17794;SDS011;9021;50.882;4.326;2022-08-11T19:49:45;5.00;;;2.40;;
17794;SDS011;9021;50.882;4.326;2022-08-11T19:52:30;7.10;;;2.53;;
17794;SDS011;9021;50.882;4.326;2022-08-11T19:55:17;9.23;;;2.50;;
17794;SDS011;9021;50.882;4.326;2022-08-11T19:58:02;8.95;;;2.83;;